sensor_id;sensor_type;location;lat;lon;timestamp;P1;durP1;ratioP1;P2;durP2;ratioP2
72791;SDS011;60907;53.268;8.764;2023-03-14T00:01:08;6.75;;;1.48;;
72791;SDS011;60907;53.268;8.764;2023-03-14T00:03:38;13.20;;;2.30;;
72791;SDS011;60907;53.268;8.764;2023-03-14T00:06:04;9.52;;;1.70;;
72791;SDS011;60907;53.268;8.764;2023-03-14T00:08:30;9.02;;;1.58;;
72791;SDS011;60907;53.268;8.764;2023-03-14T00:10:55;5.80;;;1.42;;
72791;SDS011;60907;53.268;8.764;2023-03-14T00:13:23;9.57;;;2.20;;
72791;SDS011;60907;53.268;8.764;2023-03-14T00:15:49;7.57;;;1.27;;
72791;SDS011;60907;53.268;8.764;2023-03-14T00:18:14;9.85;;;2.03;;
72791;SDS011;60907;53.268;8.764;2023-03-14T00:20:40;14.48;;;2.60;;
72791;SDS011;60907;53.268;8.764;2023-03-14T00:23:06;11.10;;;2.17;;
72791;SDS011;60907;53.268;8.764;2023-03-14T00:25:31;8.23;;;1.73;;
72791;SDS011;60907;53.268;8.764;2023-03-14T00:27:57;8.93;;;1.60;;
72791;SDS011;60907;53.268;8.764;2023-03-14T00:30:22;9.93;;;2.22;;
72791;SDS011;60907;53.268;8.764;2023-03-14T00:32:48;9.15;;;2.10;;
72791;SDS011;60907;53.268;8.764;2023-03-14T00:35:13;11.63;;;1.83;;
72791;SDS011;60907;53.268;8.764;2023-03-14T00:37:39;8.18;;;1.45;;
72791;SDS011;60907;53.268;8.764;2023-03-14T00:40:04;13.50;;;1.83;;
72791;SDS011;60907;53.268;8.764;2023-03-14T00:42:32;6.72;;;1.60;;
72791;SDS011;60907;53.268;8.764;2023-03-14T00:44:58;7.38;;;1.67;;
72791;SDS011;60907;53.268;8.764;2023-03-14T00:47:23;7.82;;;1.48;;
72791;SDS011;60907;53.268;8.764;2023-03-14T00:49:49;8.02;;;1.45;;
72791;SDS011;60907;53.268;8.764;2023-03-14T00:52:14;12.63;;;1.98;;
72791;SDS011;60907;53.268;8.764;2023-03-14T00:54:40;5.47;;;1.55;;
72791;SDS011;60907;53.268;8.764;2023-03-14T00:57:06;6.20;;;1.38;;
72791;SDS011;60907;53.268;8.764;2023-03-14T00:59:32;12.13;;;1.60;;
72791;SDS011;60907;53.268;8.764;2023-03-14T01:01:57;7.03;;;1.58;;
72791;SDS011;60907;53.268;8.764;2023-03-14T01:04:23;6.43;;;1.90;;
72791;SDS011;60907;53.268;8.764;2023-03-14T01:06:48;9.18;;;1.65;;
72791;SDS011;60907;53.268;8.764;2023-03-14T01:09:14;9.07;;;1.63;;
72791;SDS011;60907;53.268;8.764;2023-03-14T01:11:39;8.02;;;1.88;;
72791;SDS011;60907;53.268;8.764;2023-03-14T01:14:05;8.98;;;2.13;;
72791;SDS011;60907;53.268;8.764;2023-03-14T01:16:33;4.70;;;1.80;;
72791;SDS011;60907;53.268;8.764;2023-03-14T01:18:59;7.75;;;1.75;;
72791;SDS011;60907;53.268;8.764;2023-03-14T01:21:29;5.35;;;1.60;;
72791;SDS011;60907;53.268;8.764;2023-03-14T01:23:58;8.13;;;1.70;;
72791;SDS011;60907;53.268;8.764;2023-03-14T01:26:26;5.22;;;1.40;;
72791;SDS011;60907;53.268;8.764;2023-03-14T01:28:54;5.82;;;1.95;;
72791;SDS011;60907;53.268;8.764;2023-03-14T01:31:20;5.93;;;1.92;;
72791;SDS011;60907;53.268;8.764;2023-03-14T01:33:46;8.38;;;2.42;;
72791;SDS011;60907;53.268;8.764;2023-03-14T01:36:12;7.57;;;2.38;;
72791;SDS011;60907;53.268;8.764;2023-03-14T01:38:38;6.53;;;2.05;;
72791;SDS011;60907;53.268;8.764;2023-03-14T01:41:05;5.53;;;2.35;;
72791;SDS011;60907;53.268;8.764;2023-03-14T01:43:31;10.25;;;2.97;;
72791;SDS011;60907;53.268;8.764;2023-03-14T01:48:32;8.20;;;2.72;;
72791;SDS011;60907;53.268;8.764;2023-03-14T01:51:01;7.05;;;2.47;;
72791;SDS011;60907;53.268;8.764;2023-03-14T01:53:28;8.23;;;3.05;;
72791;SDS011;60907;53.268;8.764;2023-03-14T01:55:54;11.10;;;2.63;;
72791;SDS011;60907;53.268;8.764;2023-03-14T01:58:21;6.70;;;2.45;;
72791;SDS011;60907;53.268;8.764;2023-03-14T02:00:48;9.23;;;2.67;;
72791;SDS011;60907;53.268;8.764;2023-03-14T02:03:17;5.93;;;2.70;;
72791;SDS011;60907;53.268;8.764;2023-03-14T02:05:43;9.95;;;3.00;;
72791;SDS011;60907;53.268;8.764;2023-03-14T02:08:10;5.82;;;3.08;;
72791;SDS011;60907;53.268;8.764;2023-03-14T02:10:38;7.18;;;2.33;;
72791;SDS011;60907;53.268;8.764;2023-03-14T02:13:06;8.38;;;2.30;;
72791;SDS011;60907;53.268;8.764;2023-03-14T02:15:32;8.57;;;2.47;;
72791;SDS011;60907;53.268;8.764;2023-03-14T02:17:57;6.18;;;2.60;;
72791;SDS011;60907;53.268;8.764;2023-03-14T02:22:58;4.53;;;2.33;;
72791;SDS011;60907;53.268;8.764;2023-03-14T02:25:27;7.93;;;2.45;;
72791;SDS011;60907;53.268;8.764;2023-03-14T02:27:56;8.85;;;2.83;;
72791;SDS011;60907;53.268;8.764;2023-03-14T02:30:23;5.43;;;2.58;;
72791;SDS011;60907;53.268;8.764;2023-03-14T02:32:54;9.27;;;3.58;;
72791;SDS011;60907;53.268;8.764;2023-03-14T02:35:23;7.22;;;2.30;;
72791;SDS011;60907;53.268;8.764;2023-03-14T02:40:25;7.50;;;2.90;;
72791;SDS011;60907;53.268;8.764;2023-03-14T02:42:51;6.68;;;2.85;;
72791;SDS011;60907;53.268;8.764;2023-03-14T02:47:55;6.03;;;2.33;;
72791;SDS011;60907;53.268;8.764;2023-03-14T02:50:24;7.65;;;3.03;;
72791;SDS011;60907;53.268;8.764;2023-03-14T02:52:51;6.78;;;3.03;;
72791;SDS011;60907;53.268;8.764;2023-03-14T02:55:20;5.38;;;3.03;;
72791;SDS011;60907;53.268;8.764;2023-03-14T02:57:46;6.45;;;2.72;;
72791;SDS011;60907;53.268;8.764;2023-03-14T03:00:12;5.00;;;2.63;;
72791;SDS011;60907;53.268;8.764;2023-03-14T03:02:37;8.77;;;3.17;;
72791;SDS011;60907;53.268;8.764;2023-03-14T03:05:03;5.10;;;2.38;;
72791;SDS011;60907;53.268;8.764;2023-03-14T03:07:28;8.02;;;2.65;;
72791;SDS011;60907;53.268;8.764;2023-03-14T03:09:54;10.07;;;2.90;;
72791;SDS011;60907;53.268;8.764;2023-03-14T03:12:19;8.23;;;2.85;;
72791;SDS011;60907;53.268;8.764;2023-03-14T03:14:45;9.27;;;3.00;;
72791;SDS011;60907;53.268;8.764;2023-03-14T03:17:10;7.70;;;2.63;;
72791;SDS011;60907;53.268;8.764;2023-03-14T03:19:36;6.63;;;2.83;;
72791;SDS011;60907;53.268;8.764;2023-03-14T03:22:01;9.63;;;3.93;;
72791;SDS011;60907;53.268;8.764;2023-03-14T03:24:26;6.40;;;3.28;;
72791;SDS011;60907;53.268;8.764;2023-03-14T03:26:52;5.65;;;2.78;;
72791;SDS011;60907;53.268;8.764;2023-03-14T03:29:18;10.27;;;3.35;;
72791;SDS011;60907;53.268;8.764;2023-03-14T03:31:43;6.97;;;1.92;;
72791;SDS011;60907;53.268;8.764;2023-03-14T03:34:10;6.13;;;0.82;;
72791;SDS011;60907;53.268;8.764;2023-03-14T03:36:36;2.50;;;0.50;;
72791;SDS011;60907;53.268;8.764;2023-03-14T03:39:01;9.50;;;1.30;;
72791;SDS011;60907;53.268;8.764;2023-03-14T03:41:27;2.13;;;0.40;;
72791;SDS011;60907;53.268;8.764;2023-03-14T03:43:52;2.88;;;0.52;;
72791;SDS011;60907;53.268;8.764;2023-03-14T03:46:19;3.50;;;0.43;;
72791;SDS011;60907;53.268;8.764;2023-03-14T03:48:44;2.30;;;0.60;;
72791;SDS011;60907;53.268;8.764;2023-03-14T03:51:13;3.75;;;0.50;;
72791;SDS011;60907;53.268;8.764;2023-03-14T03:53:39;3.13;;;0.40;;
72791;SDS011;60907;53.268;8.764;2023-03-14T03:56:05;4.45;;;0.60;;
72791;SDS011;60907;53.268;8.764;2023-03-14T03:58:31;1.75;;;0.98;;
72791;SDS011;60907;53.268;8.764;2023-03-14T04:00:56;2.03;;;0.60;;
72791;SDS011;60907;53.268;8.764;2023-03-14T04:03:22;3.93;;;0.40;;
72791;SDS011;60907;53.268;8.764;2023-03-14T04:05:57;3.63;;;0.50;;
72791;SDS011;60907;53.268;8.764;2023-03-14T04:08:23;4.53;;;0.93;;
72791;SDS011;60907;53.268;8.764;2023-03-14T04:10:48;1.35;;;0.35;;
72791;SDS011;60907;53.268;8.764;2023-03-14T04:13:14;4.30;;;0.63;;
72791;SDS011;60907;53.268;8.764;2023-03-14T04:15:39;2.37;;;0.47;;
72791;SDS011;60907;53.268;8.764;2023-03-14T04:18:04;1.30;;;0.40;;
72791;SDS011;60907;53.268;8.764;2023-03-14T04:20:30;3.20;;;0.70;;
72791;SDS011;60907;53.268;8.764;2023-03-14T04:22:55;3.23;;;0.80;;
72791;SDS011;60907;53.268;8.764;2023-03-14T04:25:21;1.97;;;1.07;;
72791;SDS011;60907;53.268;8.764;2023-03-14T04:27:47;2.38;;;0.88;;
72791;SDS011;60907;53.268;8.764;2023-03-14T04:30:12;4.68;;;1.15;;
72791;SDS011;60907;53.268;8.764;2023-03-14T04:32:38;3.83;;;1.17;;
72791;SDS011;60907;53.268;8.764;2023-03-14T04:35:04;3.25;;;1.38;;
72791;SDS011;60907;53.268;8.764;2023-03-14T04:37:30;7.53;;;1.23;;
72791;SDS011;60907;53.268;8.764;2023-03-14T04:39:55;4.97;;;1.30;;
72791;SDS011;60907;53.268;8.764;2023-03-14T04:42:20;7.07;;;1.40;;
72791;SDS011;60907;53.268;8.764;2023-03-14T04:44:46;6.57;;;1.60;;
72791;SDS011;60907;53.268;8.764;2023-03-14T04:47:14;5.07;;;1.23;;
72791;SDS011;60907;53.268;8.764;2023-03-14T04:49:39;5.05;;;2.38;;
72791;SDS011;60907;53.268;8.764;2023-03-14T04:52:05;5.20;;;1.88;;
72791;SDS011;60907;53.268;8.764;2023-03-14T04:54:30;6.80;;;1.30;;
72791;SDS011;60907;53.268;8.764;2023-03-14T04:56:56;7.80;;;1.60;;
72791;SDS011;60907;53.268;8.764;2023-03-14T04:59:21;3.80;;;1.77;;
72791;SDS011;60907;53.268;8.764;2023-03-14T05:01:46;4.50;;;1.50;;
72791;SDS011;60907;53.268;8.764;2023-03-14T05:04:13;2.63;;;1.30;;
72791;SDS011;60907;53.268;8.764;2023-03-14T05:06:38;3.50;;;1.30;;
72791;SDS011;60907;53.268;8.764;2023-03-14T05:09:04;5.55;;;1.45;;
72791;SDS011;60907;53.268;8.764;2023-03-14T05:11:30;10.05;;;1.75;;
72791;SDS011;60907;53.268;8.764;2023-03-14T05:13:55;2.50;;;1.40;;
72791;SDS011;60907;53.268;8.764;2023-03-14T05:16:20;5.03;;;1.50;;
72791;SDS011;60907;53.268;8.764;2023-03-14T05:18:46;5.33;;;1.50;;
72791;SDS011;60907;53.268;8.764;2023-03-14T05:21:11;3.92;;;1.40;;
72791;SDS011;60907;53.268;8.764;2023-03-14T05:23:37;2.28;;;1.20;;
72791;SDS011;60907;53.268;8.764;2023-03-14T05:26:02;4.73;;;1.50;;
72791;SDS011;60907;53.268;8.764;2023-03-14T05:28:28;4.65;;;1.70;;
72791;SDS011;60907;53.268;8.764;2023-03-14T05:30:53;4.45;;;1.02;;
72791;SDS011;60907;53.268;8.764;2023-03-14T05:33:18;4.00;;;1.40;;
72791;SDS011;60907;53.268;8.764;2023-03-14T05:35:44;4.82;;;1.50;;
72791;SDS011;60907;53.268;8.764;2023-03-14T05:38:09;3.50;;;1.30;;
72791;SDS011;60907;53.268;8.764;2023-03-14T05:40:35;6.30;;;1.60;;
72791;SDS011;60907;53.268;8.764;2023-03-14T05:43:00;5.10;;;1.67;;
72791;SDS011;60907;53.268;8.764;2023-03-14T05:45:26;4.28;;;1.30;;
72791;SDS011;60907;53.268;8.764;2023-03-14T05:47:52;7.10;;;1.50;;
72791;SDS011;60907;53.268;8.764;2023-03-14T05:50:17;4.63;;;1.42;;
72791;SDS011;60907;53.268;8.764;2023-03-14T05:52:42;5.60;;;2.45;;
72791;SDS011;60907;53.268;8.764;2023-03-14T05:55:08;6.10;;;1.60;;
72791;SDS011;60907;53.268;8.764;2023-03-14T05:57:34;4.40;;;1.10;;
72791;SDS011;60907;53.268;8.764;2023-03-14T05:59:59;8.52;;;1.45;;
72791;SDS011;60907;53.268;8.764;2023-03-14T06:02:24;5.65;;;1.38;;
72791;SDS011;60907;53.268;8.764;2023-03-14T06:04:50;5.67;;;1.17;;
72791;SDS011;60907;53.268;8.764;2023-03-14T06:07:15;8.13;;;1.63;;
72791;SDS011;60907;53.268;8.764;2023-03-14T06:09:41;6.05;;;1.50;;
72791;SDS011;60907;53.268;8.764;2023-03-14T06:12:06;6.55;;;1.30;;
72791;SDS011;60907;53.268;8.764;2023-03-14T06:14:32;8.20;;;1.95;;
72791;SDS011;60907;53.268;8.764;2023-03-14T06:16:57;8.07;;;2.47;;
72791;SDS011;60907;53.268;8.764;2023-03-14T06:19:24;3.92;;;1.30;;
72791;SDS011;60907;53.268;8.764;2023-03-14T06:21:50;7.03;;;1.70;;
72791;SDS011;60907;53.268;8.764;2023-03-14T06:24:16;4.07;;;1.48;;
72791;SDS011;60907;53.268;8.764;2023-03-14T06:26:41;6.68;;;1.38;;
72791;SDS011;60907;53.268;8.764;2023-03-14T06:29:07;6.97;;;1.53;;
72791;SDS011;60907;53.268;8.764;2023-03-14T06:31:32;4.77;;;1.80;;
72791;SDS011;60907;53.268;8.764;2023-03-14T06:33:58;5.75;;;1.60;;
72791;SDS011;60907;53.268;8.764;2023-03-14T06:36:24;7.82;;;2.10;;
72791;SDS011;60907;53.268;8.764;2023-03-14T06:38:49;6.10;;;1.38;;
72791;SDS011;60907;53.268;8.764;2023-03-14T06:41:15;3.25;;;1.38;;
72791;SDS011;60907;53.268;8.764;2023-03-14T06:43:40;4.80;;;1.80;;
72791;SDS011;60907;53.268;8.764;2023-03-14T06:46:06;3.78;;;1.58;;
72791;SDS011;60907;53.268;8.764;2023-03-14T06:48:31;6.22;;;1.40;;
72791;SDS011;60907;53.268;8.764;2023-03-14T06:50:57;3.90;;;1.77;;
72791;SDS011;60907;53.268;8.764;2023-03-14T06:53:22;7.00;;;1.50;;
72791;SDS011;60907;53.268;8.764;2023-03-14T06:55:47;5.18;;;1.30;;
72791;SDS011;60907;53.268;8.764;2023-03-14T06:58:13;3.30;;;1.35;;
72791;SDS011;60907;53.268;8.764;2023-03-14T07:00:38;7.15;;;1.77;;
72791;SDS011;60907;53.268;8.764;2023-03-14T07:03:04;3.53;;;1.05;;
72791;SDS011;60907;53.268;8.764;2023-03-14T07:05:29;2.83;;;1.00;;
72791;SDS011;60907;53.268;8.764;2023-03-14T07:07:55;6.57;;;1.58;;
72791;SDS011;60907;53.268;8.764;2023-03-14T07:10:20;2.78;;;1.20;;
72791;SDS011;60907;53.268;8.764;2023-03-14T07:12:46;2.38;;;0.90;;
72791;SDS011;60907;53.268;8.764;2023-03-14T07:15:11;5.53;;;1.00;;
72791;SDS011;60907;53.268;8.764;2023-03-14T07:17:37;3.03;;;1.10;;
72791;SDS011;60907;53.268;8.764;2023-03-14T07:20:03;2.42;;;1.00;;
72791;SDS011;60907;53.268;8.764;2023-03-14T07:22:32;4.25;;;1.02;;
72791;SDS011;60907;53.268;8.764;2023-03-14T07:24:57;5.97;;;1.30;;
72791;SDS011;60907;53.268;8.764;2023-03-14T07:27:23;4.10;;;1.20;;
72791;SDS011;60907;53.268;8.764;2023-03-14T07:29:48;3.77;;;1.00;;
72791;SDS011;60907;53.268;8.764;2023-03-14T07:32:13;2.30;;;0.80;;
72791;SDS011;60907;53.268;8.764;2023-03-14T07:34:41;5.03;;;1.05;;
72791;SDS011;60907;53.268;8.764;2023-03-14T07:37:07;3.28;;;1.05;;
72791;SDS011;60907;53.268;8.764;2023-03-14T07:39:33;4.70;;;1.30;;
72791;SDS011;60907;53.268;8.764;2023-03-14T07:41:58;7.43;;;1.20;;
72791;SDS011;60907;53.268;8.764;2023-03-14T07:44:23;3.63;;;1.00;;
72791;SDS011;60907;53.268;8.764;2023-03-14T07:46:49;3.83;;;1.00;;
72791;SDS011;60907;53.268;8.764;2023-03-14T07:49:14;3.90;;;1.33;;
72791;SDS011;60907;53.268;8.764;2023-03-14T07:51:39;4.53;;;1.37;;
72791;SDS011;60907;53.268;8.764;2023-03-14T07:54:05;4.70;;;0.95;;
72791;SDS011;60907;53.268;8.764;2023-03-14T07:56:30;5.60;;;1.23;;
72791;SDS011;60907;53.268;8.764;2023-03-14T07:58:56;3.67;;;1.17;;
72791;SDS011;60907;53.268;8.764;2023-03-14T08:01:21;7.63;;;1.05;;
72791;SDS011;60907;53.268;8.764;2023-03-14T08:03:47;3.33;;;0.80;;
72791;SDS011;60907;53.268;8.764;2023-03-14T08:06:12;5.07;;;1.48;;
72791;SDS011;60907;53.268;8.764;2023-03-14T08:08:38;10.30;;;1.80;;
72791;SDS011;60907;53.268;8.764;2023-03-14T08:11:04;4.50;;;1.40;;
72791;SDS011;60907;53.268;8.764;2023-03-14T08:13:30;2.63;;;1.25;;
72791;SDS011;60907;53.268;8.764;2023-03-14T08:15:56;6.53;;;1.50;;
72791;SDS011;60907;53.268;8.764;2023-03-14T08:18:21;5.07;;;1.17;;
72791;SDS011;60907;53.268;8.764;2023-03-14T08:20:47;9.10;;;1.45;;
72791;SDS011;60907;53.268;8.764;2023-03-14T08:23:12;4.57;;;1.50;;
72791;SDS011;60907;53.268;8.764;2023-03-14T08:25:37;8.30;;;1.40;;
72791;SDS011;60907;53.268;8.764;2023-03-14T08:28:03;5.70;;;1.08;;
72791;SDS011;60907;53.268;8.764;2023-03-14T08:30:29;3.53;;;1.23;;
72791;SDS011;60907;53.268;8.764;2023-03-14T08:32:56;8.75;;;1.52;;
72791;SDS011;60907;53.268;8.764;2023-03-14T08:35:23;6.03;;;1.25;;
72791;SDS011;60907;53.268;8.764;2023-03-14T08:37:48;3.40;;;1.30;;
72791;SDS011;60907;53.268;8.764;2023-03-14T08:40:14;3.15;;;1.10;;
72791;SDS011;60907;53.268;8.764;2023-03-14T08:42:42;2.28;;;0.95;;
72791;SDS011;60907;53.268;8.764;2023-03-14T08:45:07;8.10;;;1.33;;
72791;SDS011;60907;53.268;8.764;2023-03-14T08:47:34;3.83;;;1.00;;
72791;SDS011;60907;53.268;8.764;2023-03-14T08:49:59;4.78;;;0.82;;
72791;SDS011;60907;53.268;8.764;2023-03-14T08:52:25;1.40;;;0.40;;
72791;SDS011;60907;53.268;8.764;2023-03-14T08:54:50;2.08;;;0.63;;
72791;SDS011;60907;53.268;8.764;2023-03-14T08:57:16;3.80;;;0.50;;
72791;SDS011;60907;53.268;8.764;2023-03-14T08:59:41;1.23;;;0.30;;
72791;SDS011;60907;53.268;8.764;2023-03-14T09:02:08;1.73;;;0.30;;
72791;SDS011;60907;53.268;8.764;2023-03-14T09:04:35;1.30;;;0.30;;
72791;SDS011;60907;53.268;8.764;2023-03-14T09:07:00;1.07;;;0.50;;
72791;SDS011;60907;53.268;8.764;2023-03-14T09:09:26;0.90;;;0.23;;
72791;SDS011;60907;53.268;8.764;2023-03-14T09:11:52;5.55;;;0.50;;
72791;SDS011;60907;53.268;8.764;2023-03-14T09:14:17;1.63;;;0.55;;
72791;SDS011;60907;53.268;8.764;2023-03-14T09:16:42;4.13;;;0.47;;
72791;SDS011;60907;53.268;8.764;2023-03-14T09:19:08;1.93;;;0.30;;
72791;SDS011;60907;53.268;8.764;2023-03-14T09:21:33;3.53;;;0.40;;
72791;SDS011;60907;53.268;8.764;2023-03-14T09:23:59;3.72;;;0.60;;
72791;SDS011;60907;53.268;8.764;2023-03-14T09:26:24;4.13;;;0.38;;
72791;SDS011;60907;53.268;8.764;2023-03-14T09:28:50;3.50;;;0.32;;
72791;SDS011;60907;53.268;8.764;2023-03-14T09:31:15;1.83;;;0.17;;
72791;SDS011;60907;53.268;8.764;2023-03-14T09:33:40;2.20;;;0.20;;
72791;SDS011;60907;53.268;8.764;2023-03-14T09:36:06;2.72;;;0.35;;
72791;SDS011;60907;53.268;8.764;2023-03-14T09:38:32;1.73;;;0.45;;
72791;SDS011;60907;53.268;8.764;2023-03-14T09:40:58;1.05;;;0.25;;
72791;SDS011;60907;53.268;8.764;2023-03-14T09:43:25;0.28;;;0.00;;
72791;SDS011;60907;53.268;8.764;2023-03-14T09:45:51;4.72;;;0.30;;
72791;SDS011;60907;53.268;8.764;2023-03-14T09:48:21;0.20;;;0.10;;
72791;SDS011;60907;53.268;8.764;2023-03-14T09:50:51;0.77;;;0.10;;
72791;SDS011;60907;53.268;8.764;2023-03-14T09:55:51;0.43;;;0.03;;
72791;SDS011;60907;53.268;8.764;2023-03-14T09:58:21;0.13;;;0.00;;
72791;SDS011;60907;53.268;8.764;2023-03-14T10:00:47;0.00;;;0.00;;
72791;SDS011;60907;53.268;8.764;2023-03-14T10:03:25;1.02;;;0.20;;
72791;SDS011;60907;53.268;8.764;2023-03-14T10:06:00;0.70;;;0.05;;
72791;SDS011;60907;53.268;8.764;2023-03-14T10:08:25;0.52;;;0.03;;
72791;SDS011;60907;53.268;8.764;2023-03-14T10:10:51;0.45;;;0.10;;
72791;SDS011;60907;53.268;8.764;2023-03-14T10:13:19;1.17;;;0.10;;
72791;SDS011;60907;53.268;8.764;2023-03-14T10:15:53;0.90;;;0.10;;
72791;SDS011;60907;53.268;8.764;2023-03-14T10:18:22;0.35;;;0.00;;
72791;SDS011;60907;53.268;8.764;2023-03-14T10:20:49;1.85;;;0.10;;
72791;SDS011;60907;53.268;8.764;2023-03-14T10:25:43;1.23;;;0.23;;
72791;SDS011;60907;53.268;8.764;2023-03-14T10:31:14;1.75;;;0.10;;
72791;SDS011;60907;53.268;8.764;2023-03-14T10:33:40;0.20;;;0.10;;
72791;SDS011;60907;53.268;8.764;2023-03-14T10:36:15;1.50;;;0.15;;
72791;SDS011;60907;53.268;8.764;2023-03-14T10:38:46;0.10;;;0.00;;
72791;SDS011;60907;53.268;8.764;2023-03-14T10:41:25;1.15;;;0.10;;
72791;SDS011;60907;53.268;8.764;2023-03-14T10:43:53;1.05;;;0.10;;
72791;SDS011;60907;53.268;8.764;2023-03-14T10:46:21;1.27;;;0.08;;
72791;SDS011;60907;53.268;8.764;2023-03-14T10:48:49;0.28;;;0.10;;
72791;SDS011;60907;53.268;8.764;2023-03-14T10:51:18;2.03;;;0.10;;
72791;SDS011;60907;53.268;8.764;2023-03-14T10:53:48;1.55;;;0.13;;
72791;SDS011;60907;53.268;8.764;2023-03-14T10:56:26;1.73;;;0.45;;
72791;SDS011;60907;53.268;8.764;2023-03-14T10:58:53;2.10;;;0.50;;
72791;SDS011;60907;53.268;8.764;2023-03-14T11:01:29;1.40;;;0.20;;
72791;SDS011;60907;53.268;8.764;2023-03-14T11:11:53;2.85;;;0.52;;
72791;SDS011;60907;53.268;8.764;2023-03-14T11:27:48;3.17;;;0.40;;
72791;SDS011;60907;53.268;8.764;2023-03-14T11:30:55;5.20;;;0.40;;
72791;SDS011;60907;53.268;8.764;2023-03-14T11:36:11;8.13;;;0.50;;
72791;SDS011;60907;53.268;8.764;2023-03-14T11:41:22;4.68;;;0.55;;
72791;SDS011;60907;53.268;8.764;2023-03-14T11:43:54;9.05;;;0.90;;
72791;SDS011;60907;53.268;8.764;2023-03-14T11:46:38;4.00;;;0.32;;
72791;SDS011;60907;53.268;8.764;2023-03-14T11:51:52;9.05;;;0.80;;
72791;SDS011;60907;53.268;8.764;2023-03-14T11:57:12;8.63;;;1.02;;
72791;SDS011;60907;53.268;8.764;2023-03-14T12:10:16;7.60;;;1.08;;
72791;SDS011;60907;53.268;8.764;2023-03-14T12:12:42;7.95;;;1.42;;
72791;SDS011;60907;53.268;8.764;2023-03-14T12:15:18;7.55;;;1.27;;
72791;SDS011;60907;53.268;8.764;2023-03-14T12:17:45;7.47;;;0.90;;
72791;SDS011;60907;53.268;8.764;2023-03-14T12:22:46;8.23;;;1.10;;
72791;SDS011;60907;53.268;8.764;2023-03-14T12:25:15;7.55;;;1.00;;
72791;SDS011;60907;53.268;8.764;2023-03-14T12:38:04;3.90;;;0.70;;
72791;SDS011;60907;53.268;8.764;2023-03-14T12:40:37;5.82;;;0.75;;
72791;SDS011;60907;53.268;8.764;2023-03-14T12:43:20;6.35;;;1.08;;
72791;SDS011;60907;53.268;8.764;2023-03-14T12:51:43;7.97;;;0.60;;
72791;SDS011;60907;53.268;8.764;2023-03-14T12:59:51;4.13;;;0.75;;
72791;SDS011;60907;53.268;8.764;2023-03-14T13:02:22;3.55;;;0.77;;
72791;SDS011;60907;53.268;8.764;2023-03-14T13:04:53;3.67;;;0.38;;
72791;SDS011;60907;53.268;8.764;2023-03-14T13:07:31;7.18;;;0.75;;
72791;SDS011;60907;53.268;8.764;2023-03-14T13:12:51;3.75;;;0.47;;
72791;SDS011;60907;53.268;8.764;2023-03-14T13:15:24;7.47;;;0.77;;
72791;SDS011;60907;53.268;8.764;2023-03-14T13:17:59;6.35;;;0.55;;
72791;SDS011;60907;53.268;8.764;2023-03-14T13:20:31;6.03;;;0.68;;
72791;SDS011;60907;53.268;8.764;2023-03-14T13:22:59;7.22;;;0.57;;
72791;SDS011;60907;53.268;8.764;2023-03-14T13:25:24;4.05;;;1.00;;
72791;SDS011;60907;53.268;8.764;2023-03-14T13:27:54;8.65;;;0.85;;
72791;SDS011;60907;53.268;8.764;2023-03-14T13:30:21;5.70;;;0.75;;
72791;SDS011;60907;53.268;8.764;2023-03-14T13:32:49;5.28;;;0.70;;
72791;SDS011;60907;53.268;8.764;2023-03-14T13:37:41;4.97;;;0.75;;
72791;SDS011;60907;53.268;8.764;2023-03-14T13:40:21;5.80;;;0.97;;
72791;SDS011;60907;53.268;8.764;2023-03-14T13:42:59;5.20;;;0.68;;
72791;SDS011;60907;53.268;8.764;2023-03-14T13:45:28;7.68;;;1.33;;
72791;SDS011;60907;53.268;8.764;2023-03-14T13:47:53;7.00;;;1.00;;
72791;SDS011;60907;53.268;8.764;2023-03-14T13:50:19;7.72;;;0.88;;
72791;SDS011;60907;53.268;8.764;2023-03-14T13:52:44;6.40;;;0.60;;
72791;SDS011;60907;53.268;8.764;2023-03-14T13:55:15;4.85;;;0.60;;
72791;SDS011;60907;53.268;8.764;2023-03-14T13:57:49;1.92;;;0.47;;
72791;SDS011;60907;53.268;8.764;2023-03-14T14:02:55;5.38;;;1.08;;
72791;SDS011;60907;53.268;8.764;2023-03-14T14:05:22;3.38;;;0.70;;
72791;SDS011;60907;53.268;8.764;2023-03-14T14:07:48;4.45;;;0.65;;
72791;SDS011;60907;53.268;8.764;2023-03-14T14:10:14;5.53;;;0.85;;
72791;SDS011;60907;53.268;8.764;2023-03-14T14:12:45;5.32;;;0.90;;
72791;SDS011;60907;53.268;8.764;2023-03-14T14:17:53;3.50;;;0.35;;
72791;SDS011;60907;53.268;8.764;2023-03-14T14:23:08;4.35;;;0.45;;
72791;SDS011;60907;53.268;8.764;2023-03-14T14:25:35;3.40;;;0.50;;
72791;SDS011;60907;53.268;8.764;2023-03-14T14:28:13;8.25;;;0.95;;
72791;SDS011;60907;53.268;8.764;2023-03-14T14:30:43;5.85;;;0.55;;
72791;SDS011;60907;53.268;8.764;2023-03-14T14:33:27;6.20;;;0.73;;
72791;SDS011;60907;53.268;8.764;2023-03-14T14:35:56;5.25;;;0.30;;
72791;SDS011;60907;53.268;8.764;2023-03-14T14:38:23;6.80;;;0.40;;
72791;SDS011;60907;53.268;8.764;2023-03-14T14:40:49;2.75;;;0.50;;
72791;SDS011;60907;53.268;8.764;2023-03-14T14:43:26;3.97;;;0.20;;
72791;SDS011;60907;53.268;8.764;2023-03-14T14:45:53;3.10;;;0.50;;
72791;SDS011;60907;53.268;8.764;2023-03-14T14:48:23;3.78;;;0.60;;
72791;SDS011;60907;53.268;8.764;2023-03-14T14:50:58;4.35;;;0.45;;
72791;SDS011;60907;53.268;8.764;2023-03-14T14:59:00;3.38;;;0.40;;
72791;SDS011;60907;53.268;8.764;2023-03-14T15:01:36;6.05;;;0.60;;
72791;SDS011;60907;53.268;8.764;2023-03-14T15:04:03;4.18;;;0.85;;
72791;SDS011;60907;53.268;8.764;2023-03-14T15:06:37;7.00;;;0.55;;
72791;SDS011;60907;53.268;8.764;2023-03-14T15:09:02;2.53;;;0.40;;
72791;SDS011;60907;53.268;8.764;2023-03-14T15:11:28;3.97;;;0.82;;
72791;SDS011;60907;53.268;8.764;2023-03-14T15:13:53;4.28;;;0.45;;
72791;SDS011;60907;53.268;8.764;2023-03-14T15:16:23;10.02;;;0.93;;
72791;SDS011;60907;53.268;8.764;2023-03-14T15:18:53;5.03;;;0.60;;
72791;SDS011;60907;53.268;8.764;2023-03-14T15:21:23;4.72;;;0.70;;
72791;SDS011;60907;53.268;8.764;2023-03-14T15:23:49;3.60;;;0.50;;
72791;SDS011;60907;53.268;8.764;2023-03-14T15:26:15;3.90;;;0.43;;
72791;SDS011;60907;53.268;8.764;2023-03-14T15:28:43;6.18;;;0.80;;
72791;SDS011;60907;53.268;8.764;2023-03-14T15:31:09;9.35;;;0.60;;
72791;SDS011;60907;53.268;8.764;2023-03-14T15:33:35;5.18;;;0.70;;
72791;SDS011;60907;53.268;8.764;2023-03-14T15:36:01;3.88;;;0.30;;
72791;SDS011;60907;53.268;8.764;2023-03-14T15:38:27;10.93;;;1.02;;
72791;SDS011;60907;53.268;8.764;2023-03-14T15:40:52;4.40;;;1.08;;
72791;SDS011;60907;53.268;8.764;2023-03-14T15:43:18;2.42;;;0.65;;
72791;SDS011;60907;53.268;8.764;2023-03-14T15:45:44;4.05;;;0.43;;
72791;SDS011;60907;53.268;8.764;2023-03-14T15:48:19;2.28;;;0.50;;
72791;SDS011;60907;53.268;8.764;2023-03-14T15:50:46;4.85;;;0.85;;
72791;SDS011;60907;53.268;8.764;2023-03-14T15:53:11;3.93;;;0.30;;
72791;SDS011;60907;53.268;8.764;2023-03-14T15:55:37;5.18;;;0.82;;
72791;SDS011;60907;53.268;8.764;2023-03-14T15:58:02;8.63;;;0.93;;
72791;SDS011;60907;53.268;8.764;2023-03-14T16:00:28;7.22;;;1.05;;
72791;SDS011;60907;53.268;8.764;2023-03-14T16:02:54;4.63;;;0.60;;
72791;SDS011;60907;53.268;8.764;2023-03-14T16:05:20;6.60;;;0.63;;
72791;SDS011;60907;53.268;8.764;2023-03-14T16:07:45;5.57;;;0.75;;
72791;SDS011;60907;53.268;8.764;2023-03-14T16:10:11;2.72;;;0.10;;
72791;SDS011;60907;53.268;8.764;2023-03-14T16:12:37;2.85;;;0.40;;
72791;SDS011;60907;53.268;8.764;2023-03-14T16:15:03;2.25;;;0.32;;
72791;SDS011;60907;53.268;8.764;2023-03-14T16:17:28;3.97;;;0.32;;
72791;SDS011;60907;53.268;8.764;2023-03-14T16:19:54;5.40;;;0.63;;
72791;SDS011;60907;53.268;8.764;2023-03-14T16:22:20;2.75;;;0.75;;
72791;SDS011;60907;53.268;8.764;2023-03-14T16:24:45;6.03;;;0.38;;
72791;SDS011;60907;53.268;8.764;2023-03-14T16:27:11;4.47;;;0.90;;
72791;SDS011;60907;53.268;8.764;2023-03-14T16:29:36;3.03;;;1.05;;
72791;SDS011;60907;53.268;8.764;2023-03-14T16:32:01;6.88;;;0.70;;